createdAt,value
2022-10-18T03:01:47.146Z,15.08
2022-10-18T03:04:14.540Z,15.09
2022-10-18T03:06:41.950Z,15.05
2022-10-18T03:09:09.927Z,15.01
2022-10-18T03:11:37.061Z,15.00
2022-10-18T03:14:04.128Z,15.05
2022-10-18T03:16:31.690Z,15.00
2022-10-18T03:18:58.914Z,14.87
2022-10-18T03:21:25.954Z,14.92
2022-10-18T03:23:53.026Z,14.99
2022-10-18T03:26:21.715Z,15.05
2022-10-18T03:28:48.895Z,15.00
2022-10-18T03:31:16.056Z,14.94
2022-10-18T03:33:43.355Z,15.07
2022-10-18T03:36:10.490Z,15.01
2022-10-18T03:38:37.581Z,15.04
2022-10-18T03:41:04.734Z,14.98
2022-10-18T03:43:32.041Z,14.95
2022-10-18T03:45:59.363Z,15.03
2022-10-18T03:48:26.449Z,15.00
2022-10-18T03:50:53.704Z,15.03
2022-10-18T03:53:20.958Z,14.96
2022-10-18T03:55:55.856Z,14.84
2022-10-18T03:58:24.013Z,14.91
2022-10-18T04:00:55.754Z,14.97
2022-10-18T04:03:23.651Z,14.93
2022-10-18T04:05:51.161Z,14.93
2022-10-18T04:08:21.119Z,14.92
2022-10-18T04:10:52.800Z,14.96
2022-10-18T04:13:19.885Z,14.96
2022-10-18T04:15:46.959Z,14.92
2022-10-18T04:18:14.129Z,14.90
2022-10-18T04:20:41.139Z,14.94
2022-10-18T04:23:08.329Z,14.84
2022-10-18T04:25:35.392Z,14.79
2022-10-18T04:28:02.513Z,14.81
2022-10-18T04:30:29.610Z,14.94
2022-10-18T04:32:57.005Z,14.84
2022-10-18T04:35:26.192Z,14.83
2022-10-18T04:37:53.295Z,14.91
2022-10-18T04:40:20.924Z,14.90
2022-10-18T04:42:48.100Z,14.87
2022-10-18T04:45:15.202Z,14.82
2022-10-18T04:47:42.259Z,14.79
2022-10-18T04:50:09.508Z,14.83
2022-10-18T04:52:36.614Z,14.82
2022-10-18T04:55:04.049Z,14.72
2022-10-18T04:57:31.402Z,14.85
2022-10-18T04:59:59.500Z,14.76
2022-10-18T05:02:26.800Z,14.85
2022-10-18T05:04:53.912Z,14.80
2022-10-18T05:07:21.074Z,14.82
2022-10-18T05:09:48.114Z,14.94
2022-10-18T05:12:15.190Z,14.94
2022-10-18T05:14:42.343Z,15.04
2022-10-18T05:17:09.471Z,14.99
2022-10-18T05:19:36.595Z,15.06
2022-10-18T05:22:03.628Z,15.15
2022-10-18T05:24:30.720Z,15.21
2022-10-18T05:26:58.602Z,15.18
2022-10-18T05:31:57.865Z,15.09
2022-10-18T05:34:27.449Z,15.07
2022-10-18T05:36:54.563Z,15.07
2022-10-18T05:39:21.725Z,14.93
2022-10-18T05:41:48.962Z,15.03
2022-10-18T05:44:16.179Z,15.06
2022-10-18T05:46:43.297Z,14.93
2022-10-18T05:49:14.055Z,14.64
2022-10-18T05:51:41.279Z,14.90
2022-10-18T05:54:09.650Z,14.86
2022-10-18T05:56:36.721Z,14.77
2022-10-18T05:59:12.247Z,14.77
2022-10-18T06:01:41.358Z,14.88
2022-10-18T06:04:10.351Z,14.86
2022-10-18T06:06:38.554Z,14.85
2022-10-18T06:09:07.955Z,14.76
2022-10-18T06:11:37.127Z,14.80
2022-10-18T06:14:05.199Z,14.77
2022-10-18T06:16:32.846Z,14.78
2022-10-18T06:19:00.272Z,14.79
2022-10-18T06:21:28.183Z,14.81
2022-10-18T06:23:58.123Z,14.75
2022-10-18T06:26:27.289Z,14.74
2022-10-18T06:28:54.479Z,14.77
2022-10-18T06:31:21.586Z,14.77
2022-10-18T06:33:49.402Z,14.65
2022-10-18T06:36:18.883Z,14.86
2022-10-18T06:38:46.276Z,14.82
2022-10-18T06:41:14.003Z,14.87
2022-10-18T06:43:41.268Z,14.89
2022-10-18T06:46:09.256Z,14.79
2022-10-18T06:48:37.069Z,14.91
2022-10-18T06:51:06.367Z,14.92
2022-10-18T06:53:43.669Z,14.91
2022-10-18T06:56:15.851Z,15.10
2022-10-18T06:58:43.013Z,15.10
2022-10-18T07:01:16.190Z,15.19
2022-10-18T07:03:44.146Z,15.18
2022-10-18T07:06:13.817Z,15.16
2022-10-18T07:08:41.513Z,14.92
2022-10-18T07:11:13.954Z,15.27
2022-10-18T07:13:41.162Z,15.38
2022-10-18T07:16:14.114Z,15.40
2022-10-18T07:18:46.617Z,15.51
2022-10-18T07:21:18.542Z,15.46
2022-10-18T07:23:46.984Z,15.50
2022-10-18T07:26:26.127Z,15.47
2022-10-18T07:28:58.165Z,15.51
2022-10-18T07:31:25.618Z,15.63
2022-10-18T07:33:53.604Z,15.62
2022-10-18T07:36:22.310Z,15.63
2022-10-18T07:38:50.196Z,15.63
2022-10-18T07:41:17.334Z,15.61
2022-10-18T07:43:49.311Z,15.67
2022-10-18T07:46:16.606Z,15.75
2022-10-18T07:48:44.112Z,15.74
2022-10-18T07:51:11.980Z,15.93
2022-10-18T07:53:39.366Z,16.03
2022-10-18T07:56:11.734Z,16.03
2022-10-18T07:58:38.829Z,16.09
2022-10-18T08:01:07.857Z,16.24
2022-10-18T08:03:35.466Z,16.53
2022-10-18T08:06:04.002Z,16.51
2022-10-18T08:08:31.371Z,16.41
2022-10-18T08:11:15.003Z,16.52
2022-10-18T08:13:42.913Z,16.48
2022-10-18T08:16:15.726Z,16.35
2022-10-18T08:18:43.196Z,16.48
2022-10-18T08:21:12.178Z,16.52
2022-10-18T08:23:40.433Z,16.51
2022-10-18T08:26:10.201Z,16.70
2022-10-18T08:28:37.944Z,16.80
2022-10-18T08:31:12.034Z,16.83
2022-10-18T08:33:40.019Z,16.95
2022-10-18T08:36:09.170Z,17.03
2022-10-18T08:38:38.408Z,17.17
2022-10-18T08:41:33.315Z,17.38
2022-10-18T08:44:09.559Z,17.37
2022-10-18T08:46:39.289Z,17.51
2022-10-18T08:49:07.377Z,17.40
2022-10-18T08:51:48.863Z,17.59
2022-10-18T08:54:44.782Z,17.63
2022-10-18T08:57:18.353Z,17.68
2022-10-18T08:59:45.966Z,17.73
2022-10-18T09:02:31.645Z,17.74
2022-10-18T09:05:32.078Z,17.90
2022-10-18T09:08:18.506Z,18.02
2022-10-18T09:11:09.800Z,18.21
2022-10-18T09:13:59.075Z,18.23
2022-10-18T09:16:40.033Z,18.26
2022-10-18T09:19:12.512Z,18.29
2022-10-18T09:21:50.897Z,18.28
2022-10-18T09:24:37.388Z,18.40
2022-10-18T09:27:12.366Z,18.47
2022-10-18T09:30:09.241Z,18.66
2022-10-18T09:32:52.073Z,18.65
2022-10-18T09:35:24.858Z,18.86
2022-10-18T09:37:59.742Z,18.97
2022-10-18T09:40:30.508Z,19.06
2022-10-18T09:43:06.796Z,19.00
2022-10-18T09:45:40.695Z,19.12
2022-10-18T09:48:17.622Z,19.12
2022-10-18T09:50:55.165Z,19.39
2022-10-18T09:53:46.204Z,19.52
2022-10-18T09:56:20.452Z,19.65
2022-10-18T09:58:51.554Z,19.64
2022-10-18T10:01:25.399Z,19.77
2022-10-18T10:03:53.083Z,19.81
2022-10-18T10:06:25.015Z,19.92
2022-10-18T10:09:05.199Z,20.13
2022-10-18T10:11:38.896Z,20.16
2022-10-18T10:14:23.771Z,20.25
2022-10-18T10:17:03.485Z,20.30
2022-10-18T10:19:38.346Z,20.43
2022-10-18T10:22:14.393Z,20.53
2022-10-18T10:24:53.919Z,20.49
2022-10-18T10:27:34.092Z,20.68
2022-10-18T10:30:21.338Z,20.70
2022-10-18T10:32:52.068Z,21.06
2022-10-18T10:35:53.211Z,21.06
2022-10-18T10:38:28.668Z,21.13
2022-10-18T10:40:56.816Z,21.08
2022-10-18T10:43:39.219Z,21.15
2022-10-18T10:46:13.689Z,21.16
2022-10-18T10:48:46.793Z,21.24
2022-10-18T10:51:16.473Z,21.21
2022-10-18T10:53:53.146Z,21.23
2022-10-18T10:56:27.530Z,21.40
2022-10-18T10:58:58.343Z,21.49
2022-10-18T11:01:32.499Z,21.50
2022-10-18T11:04:02.970Z,21.58
2022-10-18T11:06:49.009Z,21.95
2022-10-18T11:09:26.894Z,21.95
2022-10-18T11:12:21.709Z,21.97
2022-10-18T11:15:00.060Z,22.04
2022-10-18T11:17:39.761Z,22.22
2022-10-18T11:20:12.778Z,22.27
2022-10-18T11:23:12.723Z,22.33
2022-10-18T11:26:06.096Z,22.32
2022-10-18T11:28:36.037Z,22.44
2022-10-18T11:31:11.488Z,22.53
2022-10-18T11:34:10.612Z,22.59
2022-10-18T11:37:09.672Z,22.51
2022-10-18T11:40:14.770Z,22.50
2022-10-18T11:43:14.148Z,22.40
2022-10-18T11:46:12.592Z,22.37
2022-10-18T11:48:48.414Z,22.31
2022-10-18T11:51:56.311Z,22.29
2022-10-18T11:55:02.504Z,22.35
2022-10-18T11:57:56.884Z,22.64
2022-10-18T12:00:39.452Z,22.78
2022-10-18T12:03:15.624Z,22.81
2022-10-18T12:05:46.328Z,22.90
2022-10-18T12:08:17.638Z,23.24
2022-10-18T12:11:04.418Z,23.24
2022-10-18T12:13:54.079Z,23.38
2022-10-18T12:16:49.259Z,23.57
2022-10-18T12:19:23.725Z,23.75
2022-10-18T12:22:00.641Z,23.57
2022-10-18T12:24:30.560Z,23.61
2022-10-18T12:27:00.546Z,23.71
2022-10-18T12:29:30.731Z,23.85
2022-10-18T12:32:01.334Z,24.03
2022-10-18T12:34:53.322Z,24.03
2022-10-18T12:37:39.111Z,23.84
2022-10-18T12:40:22.092Z,23.80
2022-10-18T12:42:52.776Z,24.00
2022-10-18T12:45:33.619Z,23.95
2022-10-18T12:48:08.873Z,24.31
2022-10-18T12:50:42.503Z,24.17
2022-10-18T12:53:16.494Z,24.29
2022-10-18T12:55:48.342Z,24.16
2022-10-18T12:58:20.412Z,24.27
2022-10-18T13:00:48.303Z,24.15
2022-10-18T13:03:18.803Z,24.03
2022-10-18T13:05:54.494Z,24.16
2022-10-18T13:08:34.657Z,23.99
2022-10-18T13:11:09.959Z,23.90
2022-10-18T13:13:56.444Z,23.86
2022-10-18T13:16:30.490Z,23.91
2022-10-18T13:19:04.747Z,23.91
2022-10-18T13:21:41.170Z,23.96
2022-10-18T13:24:33.353Z,23.87
2022-10-18T13:27:37.177Z,24.13
2022-10-18T13:30:38.528Z,24.03
2022-10-18T13:33:32.077Z,23.93
2022-10-18T13:36:22.648Z,23.92
2022-10-18T13:39:04.584Z,23.97
2022-10-18T13:41:56.517Z,24.08
2022-10-18T13:44:32.069Z,23.91
2022-10-18T13:46:59.132Z,24.03
2022-10-18T13:53:29.697Z,23.87
2022-10-18T13:56:08.845Z,24.21
2022-10-18T13:59:20.066Z,24.16
2022-10-18T14:01:53.441Z,24.45
2022-10-18T14:04:29.585Z,24.33
2022-10-18T14:07:02.617Z,24.31
2022-10-18T14:09:44.346Z,24.31
2022-10-18T14:12:38.783Z,24.39
2022-10-18T14:15:16.383Z,24.27
2022-10-18T14:17:52.932Z,24.46
2022-10-18T14:20:29.871Z,24.62
2022-10-18T14:23:23.468Z,24.74
2022-10-18T14:25:50.604Z,24.70
2022-10-18T14:28:31.306Z,24.62
2022-10-18T14:31:15.486Z,24.70
2022-10-18T14:33:57.055Z,24.70
2022-10-18T14:36:27.297Z,24.60
2022-10-18T14:39:01.731Z,24.72
2022-10-18T14:41:28.579Z,24.85
2022-10-18T14:44:14.299Z,24.78
2022-10-18T14:47:02.445Z,24.68
2022-10-18T14:49:30.324Z,24.53
2022-10-18T14:51:59.491Z,24.45
2022-10-18T14:54:36.658Z,24.39
2022-10-18T14:57:07.517Z,24.30
2022-10-18T14:59:42.920Z,24.17
2022-10-18T15:02:16.394Z,24.07
2022-10-18T15:04:55.537Z,24.21
2022-10-18T15:07:23.290Z,24.25
2022-10-18T15:09:50.970Z,24.19
2022-10-18T15:12:18.942Z,24.17
2022-10-18T15:14:47.059Z,24.26
2022-10-18T15:17:24.797Z,24.24
2022-10-18T15:20:20.322Z,24.21
2022-10-18T15:22:50.040Z,24.14
2022-10-18T15:25:36.033Z,23.98
2022-10-18T15:28:03.144Z,23.92
2022-10-18T15:30:39.286Z,23.86
2022-10-18T15:33:11.292Z,23.83
2022-10-18T15:35:39.774Z,23.75
2022-10-18T15:38:25.482Z,23.77
2022-10-18T15:40:53.754Z,23.71
2022-10-18T15:43:24.016Z,23.60
2022-10-18T15:46:06.904Z,23.55
2022-10-18T15:48:36.054Z,23.47
2022-10-18T15:51:06.702Z,23.55
2022-10-18T15:53:46.114Z,23.51
2022-10-18T15:56:40.411Z,23.66
2022-10-18T15:59:26.648Z,23.64
2022-10-18T16:01:56.148Z,23.82
2022-10-18T16:04:31.620Z,23.75
2022-10-18T16:07:00.224Z,23.59
2022-10-18T16:09:29.141Z,23.77
2022-10-18T16:11:58.445Z,23.70
2022-10-18T16:14:26.790Z,23.69
2022-10-18T16:17:02.171Z,23.68
2022-10-18T16:19:29.833Z,23.68
2022-10-18T16:21:57.948Z,23.53
2022-10-18T16:24:27.328Z,23.59
2022-10-18T16:26:54.451Z,23.61
2022-10-18T16:29:28.848Z,23.55
2022-10-18T16:31:58.430Z,23.57
2022-10-18T16:34:29.691Z,23.50
2022-10-18T16:36:56.757Z,23.34
2022-10-18T16:39:24.102Z,23.40
2022-10-18T16:41:51.795Z,23.27
2022-10-18T16:44:19.418Z,23.25
2022-10-18T16:46:49.908Z,23.14
2022-10-18T16:49:24.133Z,23.14
2022-10-18T16:51:52.989Z,23.08
2022-10-18T16:54:20.100Z,22.90
2022-10-18T16:56:48.139Z,22.85
2022-10-18T16:59:29.060Z,22.83
2022-10-18T17:01:56.435Z,22.64
2022-10-18T17:04:23.584Z,22.72
2022-10-18T17:06:52.368Z,22.68
2022-10-18T17:09:19.410Z,22.57
2022-10-18T17:11:46.435Z,22.36
2022-10-18T17:14:13.480Z,22.40
2022-10-18T17:16:40.514Z,22.35
2022-10-18T17:19:10.762Z,22.26
2022-10-18T17:21:37.990Z,22.17
2022-10-18T17:24:06.349Z,22.07
2022-10-18T17:26:34.133Z,21.97
2022-10-18T17:29:05.257Z,21.92
2022-10-18T17:31:32.995Z,21.85
2022-10-18T17:34:02.114Z,21.76
2022-10-18T17:36:31.251Z,21.61
2022-10-18T17:38:58.961Z,21.58
2022-10-18T17:41:26.375Z,21.54
2022-10-18T17:43:53.476Z,21.47
2022-10-18T17:46:20.742Z,21.51
2022-10-18T17:48:47.930Z,21.44
2022-10-18T17:51:17.308Z,21.42
2022-10-18T17:53:46.884Z,21.15
2022-10-18T17:56:15.685Z,21.11
2022-10-18T17:58:48.268Z,21.07
2022-10-18T18:01:21.889Z,21.11
2022-10-18T18:03:49.490Z,21.06
2022-10-18T18:06:19.415Z,20.90
2022-10-18T18:08:48.188Z,20.96
2022-10-18T18:11:16.218Z,20.82
2022-10-18T18:13:43.491Z,20.71
2022-10-18T18:16:20.059Z,20.73
2022-10-18T18:18:53.553Z,20.59
2022-10-18T18:21:21.473Z,20.39
2022-10-18T18:23:49.753Z,20.50
2022-10-18T18:26:18.369Z,20.27
2022-10-18T18:28:45.672Z,20.18
2022-10-18T18:31:24.889Z,20.33
2022-10-18T18:33:54.348Z,20.13
2022-10-18T18:36:22.260Z,20.10
2022-10-18T18:38:55.448Z,20.16
2022-10-18T18:41:26.367Z,20.10
2022-10-18T18:43:55.963Z,20.05
2022-10-18T18:46:24.300Z,19.87
2022-10-18T18:48:51.535Z,19.79
2022-10-18T18:51:21.113Z,19.88
2022-10-18T18:53:49.088Z,19.83
2022-10-18T18:56:18.962Z,19.69
2022-10-18T18:58:46.655Z,19.67
2022-10-18T19:01:19.761Z,19.69
2022-10-18T19:03:49.484Z,19.64
2022-10-18T19:06:20.226Z,19.60
2022-10-18T19:08:48.130Z,19.57
2022-10-18T19:11:21.482Z,19.50
2022-10-18T19:13:49.923Z,19.52
2022-10-18T19:16:26.164Z,19.43
2022-10-18T19:19:08.280Z,19.29
2022-10-18T19:21:38.134Z,19.32
2022-10-18T19:24:06.136Z,19.30
2022-10-18T19:26:37.386Z,19.28
2022-10-18T19:29:11.125Z,19.17
2022-10-18T19:31:39.312Z,19.18
2022-10-18T19:34:08.854Z,18.87
2022-10-18T19:36:36.635Z,19.13
2022-10-18T19:39:04.635Z,19.12
2022-10-18T19:41:31.915Z,19.07
2022-10-18T19:43:59.037Z,19.02
2022-10-18T19:46:26.639Z,19.07
2022-10-18T19:48:54.462Z,19.00
2022-10-18T19:51:22.957Z,18.91
2022-10-18T19:53:52.904Z,18.90
2022-10-18T19:56:23.399Z,18.86
2022-10-18T19:58:51.167Z,18.74
2022-10-18T20:01:18.997Z,18.73
2022-10-18T20:03:50.124Z,18.89
2022-10-18T20:06:17.541Z,18.79
2022-10-18T20:08:44.840Z,18.72
2022-10-18T20:11:15.541Z,18.70
2022-10-18T20:13:42.720Z,18.76
2022-10-18T20:16:11.275Z,18.64
2022-10-18T20:18:38.934Z,18.58
2022-10-18T20:21:07.559Z,18.62
2022-10-18T20:23:39.522Z,18.65
2022-10-18T20:26:17.985Z,18.53
2022-10-18T20:28:49.409Z,18.66
2022-10-18T20:31:18.083Z,18.60
2022-10-18T20:33:47.057Z,18.45
2022-10-18T20:36:16.443Z,18.54
2022-10-18T20:38:45.475Z,18.60
2022-10-18T20:41:15.120Z,18.41
2022-10-18T20:43:43.323Z,18.61
2022-10-18T20:46:10.994Z,18.60
2022-10-18T20:48:39.110Z,18.62
2022-10-18T20:51:09.467Z,18.67
2022-10-18T20:53:37.528Z,18.62
2022-10-18T20:56:07.948Z,18.66
2022-10-18T20:58:36.993Z,18.84
2022-10-18T21:01:11.905Z,18.85
2022-10-18T21:03:41.834Z,18.73
2022-10-18T21:06:13.904Z,18.77
2022-10-18T21:08:41.719Z,18.69
2022-10-18T21:11:10.441Z,18.74
2022-10-18T21:13:38.195Z,18.67
2022-10-18T21:16:05.994Z,18.68
2022-10-18T21:18:35.147Z,18.66
2022-10-18T21:21:28.668Z,18.60
2022-10-18T21:23:55.701Z,18.63
2022-10-18T21:26:25.349Z,18.66
2022-10-18T21:28:54.619Z,18.54
2022-10-18T21:31:24.028Z,18.56
2022-10-18T21:34:03.237Z,18.55
2022-10-18T21:36:32.371Z,18.45
2022-10-18T21:38:59.458Z,18.48
2022-10-18T21:41:26.820Z,18.34
2022-10-18T21:43:55.348Z,18.25
2022-10-18T21:46:24.017Z,18.38
2022-10-18T21:48:53.172Z,18.33
2022-10-18T21:51:22.533Z,18.31
2022-10-18T21:53:51.697Z,18.33
2022-10-18T21:56:26.211Z,18.13
2022-10-18T21:58:53.527Z,18.25
2022-10-18T22:01:22.176Z,18.31
2022-10-18T22:03:51.768Z,18.28
2022-10-18T22:06:19.679Z,18.26
2022-10-18T22:08:51.724Z,18.22
2022-10-18T22:11:21.732Z,18.26
2022-10-18T22:13:52.496Z,18.21
2022-10-18T22:16:19.867Z,18.12
2022-10-18T22:18:48.588Z,18.07
2022-10-18T22:21:18.369Z,17.96
2022-10-18T22:23:48.059Z,18.08
2022-10-18T22:26:22.561Z,17.92
2022-10-18T22:28:56.398Z,17.90
2022-10-18T22:31:27.126Z,17.99
2022-10-18T22:33:58.782Z,17.93
2022-10-18T22:36:26.513Z,17.90
2022-10-18T22:38:53.786Z,17.85
2022-10-18T22:41:20.847Z,17.81
2022-10-18T22:43:49.988Z,17.77
2022-10-18T22:46:17.770Z,17.65
2022-10-18T22:48:45.330Z,17.74
2022-10-18T22:51:12.734Z,17.65
2022-10-18T22:53:40.579Z,17.59
2022-10-18T22:56:10.110Z,17.63
2022-10-18T22:58:37.167Z,17.69
